Time;durP1;ratioP1;P1;durP2;ratioP2;P2;SDS_P1;SDS_P2;PMS_P1;PMS_P2;Temp;Humidity;BMP_temperature;BMP_pressure;BME280_temperature;BME280_humidity;BME280_pressure;Samples;Min_cycle;Max_cycle;Signal;HPM_P1;HPM_P2
2023/06/13 00:00:10;;;;;;;3.92;3.58;;;22.60;57.70;;;;;;5027831;28;20248;-66
2023/06/13 00:02:39;;;;;;;3.70;3.40;;;22.60;57.70;;;;;;5020928;28;20192;-66
2023/06/13 00:05:16;;;;;;;3.60;3.30;;;22.60;57.70;;;;;;5027713;28;20198;-66
2023/06/13 00:07:45;;;;;;;3.70;3.40;;;22.60;57.70;;;;;;5020719;28;20287;-66
2023/06/13 00:10:14;;;;;;;3.55;3.25;;;22.60;57.70;;;;;;5012379;28;20319;-66
2023/06/13 00:12:39;;;;;;;3.50;3.20;;;22.60;57.80;;;;;;5023029;28;20195;-66
2023/06/13 00:15:06;;;;;;;3.53;3.22;;;22.60;57.60;;;;;;5006383;28;20286;-66
2023/06/13 00:17:32;;;;;;;3.15;2.95;;;22.60;57.70;;;;;;5006625;28;20194;-66
2023/06/13 00:20:03;;;;;;;3.80;3.50;;;22.60;57.70;;;;;;5014165;28;20241;-66
2023/06/13 00:22:29;;;;;;;4.20;3.60;;;22.60;57.70;;;;;;5011472;28;20249;-66
2023/06/13 00:24:56;;;;;;;3.78;3.47;;;22.60;57.70;;;;;;5026051;28;20265;-66
2023/06/13 00:27:22;;;;;;;3.65;3.35;;;22.60;57.70;;;;;;5022808;28;20223;-65
2023/06/13 00:29:47;;;;;;;3.90;3.60;;;22.60;57.70;;;;;;5008833;28;20215;-66
2023/06/13 00:32:13;;;;;;;3.58;3.30;;;22.60;57.80;;;;;;5012008;28;20187;-66
2023/06/13 00:34:40;;;;;;;3.72;3.38;;;22.60;57.70;;;;;;5006577;28;20608;-66
2023/06/13 00:37:09;;;;;;;3.70;3.40;;;22.60;57.70;;;;;;5014974;28;20187;-66
2023/06/13 00:39:36;;;;;;;3.60;3.30;;;22.60;57.70;;;;;;5014274;28;20208;-66
2023/06/13 00:42:02;;;;;;;3.72;3.42;;;22.60;57.80;;;;;;5039040;28;20574;-66
2023/06/13 00:44:28;;;;;;;3.63;3.33;;;22.60;57.80;;;;;;5039204;28;20187;-66
2023/06/13 00:46:55;;;;;;;3.50;3.20;;;22.60;57.70;;;;;;5023011;28;20588;-66
2023/06/13 00:49:22;;;;;;;3.25;2.95;;;22.50;57.70;;;;;;5024381;28;20203;-66
2023/06/13 00:51:48;;;;;;;3.55;3.25;;;22.50;57.70;;;;;;5014122;28;20229;-66
2023/06/13 00:54:16;;;;;;;3.80;3.50;;;22.50;57.80;;;;;;4998217;28;20184;-66
2023/06/13 00:56:45;;;;;;;3.95;3.53;;;22.60;57.80;;;;;;5022496;28;20191;-66
2023/06/13 00:59:13;;;;;;;4.28;3.33;;;22.50;57.70;;;;;;5022690;28;20214;-66
2023/06/13 01:01:42;;;;;;;3.50;3.20;;;22.50;57.70;;;;;;5002878;28;20222;-67
2023/06/13 01:04:08;;;;;;;3.97;3.55;;;22.50;57.70;;;;;;5034862;28;20184;-66
2023/06/13 01:06:40;;;;;;;3.88;3.50;;;22.50;57.70;;;;;;5023038;28;20686;-66
2023/06/13 01:09:08;;;;;;;3.20;3.00;;;22.50;57.80;;;;;;5047360;28;20222;-66
2023/06/13 01:12:13;;;;;;;3.42;3.13;;;22.60;57.80;;;;;;5026091;28;20187;-66
2023/06/13 01:15:04;;;;;;;3.20;3.00;;;22.50;57.80;;;;;;5018005;28;20194;-66
2023/06/13 01:17:36;;;;;;;3.45;3.15;;;22.50;57.80;;;;;;5006895;28;20218;-66
2023/06/13 01:20:10;;;;;;;3.38;3.10;;;22.50;57.70;;;;;;5006103;28;20299;-66
2023/06/13 01:22:52;;;;;;;3.17;2.95;;;22.50;57.70;;;;;;5022855;28;20192;-66
2023/06/13 01:25:37;;;;;;;3.22;3.03;;;22.50;58.30;;;;;;5015652;28;20188;-66
2023/06/13 01:28:06;;;;;;;3.45;3.15;;;22.50;57.70;;;;;;5002214;28;20227;-66
2023/06/13 01:30:35;;;;;;;3.50;3.20;;;22.50;57.70;;;;;;5016703;28;20594;-66
2023/06/13 01:33:03;;;;;;;3.33;3.03;;;22.50;57.70;;;;;;5025962;28;20191;-66
2023/06/13 01:35:30;;;;;;;3.50;3.20;;;22.50;57.70;;;;;;5009574;28;20238;-66
2023/06/13 01:37:56;;;;;;;3.65;3.35;;;22.50;57.80;;;;;;5025655;28;20191;-66
2023/06/13 01:40:22;;;;;;;3.60;3.30;;;22.50;57.70;;;;;;5026598;28;20270;-66
2023/06/13 01:42:47;;;;;;;3.50;3.20;;;22.50;57.80;;;;;;5009297;28;20365;-66
2023/06/13 01:45:14;;;;;;;3.83;3.53;;;22.50;57.70;;;;;;5009107;28;20199;-66
2023/06/13 01:48:10;;;;;;;3.60;3.30;;;22.50;57.80;;;;;;5025453;28;20291;-66
2023/06/13 01:50:48;;;;;;;3.90;3.50;;;22.50;57.80;;;;;;5021863;28;20195;-66
2023/06/13 01:53:31;;;;;;;4.80;3.45;;;22.50;57.80;;;;;;5022129;28;20217;-66
2023/06/13 01:56:12;;;;;;;3.25;3.00;;;22.50;57.80;;;;;;5008953;28;20246;-66
2023/06/13 01:58:47;;;;;;;3.45;3.20;;;22.50;57.70;;;;;;5009266;28;20207;-66
2023/06/13 02:01:14;;;;;;;3.65;3.28;;;22.50;57.80;;;;;;5008844;28;20190;-66
2023/06/13 02:03:40;;;;;;;3.47;2.92;;;22.50;57.80;;;;;;5009514;28;20203;-66
2023/06/13 02:06:06;;;;;;;3.50;3.20;;;22.50;57.80;;;;;;5030014;28;20271;-66
2023/06/13 02:08:33;;;;;;;3.50;3.20;;;22.50;57.80;;;;;;5038090;28;20219;-66
2023/06/13 02:10:59;;;;;;;3.15;2.95;;;22.50;57.90;;;;;;5007745;28;20184;-66
2023/06/13 02:13:24;;;;;;;3.17;2.88;;;22.50;57.80;;;;;;5032575;28;20185;-66
2023/06/13 02:15:50;;;;;;;3.17;2.97;;;22.50;57.80;;;;;;5028347;28;20539;-66
2023/06/13 02:18:16;;;;;;;3.38;3.10;;;22.50;57.80;;;;;;5021859;28;20202;-66
2023/06/13 02:20:42;;;;;;;3.30;3.00;;;22.50;57.80;;;;;;5004577;28;20188;-66
2023/06/13 02:23:09;;;;;;;3.30;3.10;;;22.50;57.90;;;;;;5025665;28;20210;-66
2023/06/13 02:25:35;;;;;;;3.40;3.20;;;22.50;57.80;;;;;;5012677;28;20254;-66
2023/06/13 02:28:01;;;;;;;3.00;2.80;;;22.50;57.90;;;;;;5016805;28;20215;-67
2023/06/13 02:30:27;;;;;;;3.20;3.00;;;22.50;57.90;;;;;;5038904;28;20211;-66
2023/06/13 02:32:53;;;;;;;3.30;3.10;;;22.40;57.80;;;;;;5013078;28;20242;-66
2023/06/13 02:35:23;;;;;;;3.60;3.30;;;22.40;57.70;;;;;;5013144;28;20192;-66
2023/06/13 02:37:55;;;;;;;3.22;3.00;;;22.40;57.80;;;;;;5012936;28;20192;-66
2023/06/13 02:40:23;;;;;;;3.60;3.30;;;22.50;57.80;;;;;;5014501;28;20235;-66
2023/06/13 02:42:50;;;;;;;3.40;3.10;;;22.40;57.80;;;;;;5021148;28;20210;-66
2023/06/13 02:45:17;;;;;;;3.60;3.30;;;22.40;58.40;;;;;;5021214;28;20218;-66
2023/06/13 02:47:43;;;;;;;3.53;3.20;;;22.40;57.80;;;;;;5004331;28;20295;-66
2023/06/13 02:50:10;;;;;;;3.15;2.95;;;22.40;57.80;;;;;;5016853;28;20207;-65
2023/06/13 02:52:37;;;;;;;3.78;3.47;;;22.40;57.80;;;;;;5021145;28;20180;-66
2023/06/13 02:55:07;;;;;;;3.53;3.22;;;22.40;57.80;;;;;;5027259;28;20179;-66
2023/06/13 02:57:33;;;;;;;3.42;3.13;;;22.40;57.90;;;;;;5028967;28;20196;-65
2023/06/13 02:59:59;;;;;;;3.60;3.30;;;22.40;57.80;;;;;;5018461;28;20253;-66
2023/06/13 03:02:26;;;;;;;3.25;3.03;;;22.40;57.90;;;;;;5014064;28;20184;-66
2023/06/13 03:04:53;;;;;;;3.58;3.28;;;22.40;57.80;;;;;;5019069;28;20196;-66
2023/06/13 03:07:19;;;;;;;3.03;2.80;;;22.40;57.80;;;;;;4996149;28;20219;-66
2023/06/13 03:09:45;;;;;;;3.35;2.95;;;22.40;57.80;;;;;;5015412;28;20287;-66
2023/06/13 03:12:11;;;;;;;3.20;2.97;;;22.40;57.80;;;;;;5031901;28;20179;-66
2023/06/13 03:14:39;;;;;;;3.28;2.90;;;22.40;57.80;;;;;;4996324;28;20184;-66
2023/06/13 03:17:06;;;;;;;3.65;3.03;;;22.40;57.90;;;;;;5003799;28;20192;-66
2023/06/13 03:19:32;;;;;;;3.10;2.90;;;22.40;57.90;;;;;;5045993;28;20226;-66
2023/06/13 03:21:58;;;;;;;3.15;2.88;;;22.40;57.80;;;;;;5023742;28;20191;-66
2023/06/13 03:24:25;;;;;;;3.50;3.20;;;22.40;57.80;;;;;;5014394;28;20207;-66
2023/06/13 03:26:50;;;;;;;3.47;3.17;;;22.40;57.90;;;;;;5010588;28;20208;-66
2023/06/13 03:29:16;;;;;;;3.47;2.97;;;22.40;57.90;;;;;;5003801;28;20212;-66
2023/06/13 03:31:43;;;;;;;2.75;2.55;;;22.40;57.80;;;;;;5028083;28;20674;-66
2023/06/13 03:34:09;;;;;;;3.65;3.10;;;22.40;57.90;;;;;;5018792;28;20270;-66
2023/06/13 03:36:37;;;;;;;2.97;2.78;;;22.40;57.90;;;;;;5012892;28;20275;-66
2023/06/13 03:39:04;;;;;;;3.13;2.92;;;22.40;57.90;;;;;;5009819;28;20203;-66
2023/06/13 03:41:30;;;;;;;2.78;2.58;;;22.40;57.90;;;;;;5031192;28;20217;-66
2023/06/13 03:43:57;;;;;;;3.30;3.00;;;22.40;57.90;;;;;;5031310;28;20274;-66
2023/06/13 03:46:24;;;;;;;2.88;2.67;;;22.30;57.90;;;;;;5015021;28;20187;-66
2023/06/13 03:48:52;;;;;;;3.08;2.88;;;22.40;57.90;;;;;;5012144;28;20208;-66
2023/06/13 03:51:19;;;;;;;3.20;2.90;;;22.40;57.90;;;;;;5019942;28;20199;-66
2023/06/13 03:53:47;;;;;;;3.33;3.13;;;22.40;57.90;;;;;;5011540;28;20180;-66
2023/06/13 03:56:13;;;;;;;3.45;3.03;;;22.40;57.90;;;;;;5015515;28;20195;-66
2023/06/13 03:58:38;;;;;;;3.28;2.97;;;22.40;57.90;;;;;;5011363;28;20691;-66
2023/06/13 04:01:06;;;;;;;3.13;2.92;;;22.30;57.80;;;;;;5003378;28;20184;-66
2023/06/13 04:03:35;;;;;;;3.03;2.83;;;22.40;57.90;;;;;;5029568;28;20226;-66
2023/06/13 04:06:01;;;;;;;3.70;2.92;;;22.40;57.90;;;;;;5017425;28;20318;-66
2023/06/13 04:08:26;;;;;;;2.88;2.67;;;22.30;57.90;;;;;;5027605;28;20219;-66
2023/06/13 04:10:52;;;;;;;3.15;2.95;;;22.30;57.80;;;;;;4995340;28;20275;-66
2023/06/13 04:13:18;;;;;;;3.53;3.22;;;22.40;57.90;;;;;;5024422;28;20188;-66
2023/06/13 04:15:43;;;;;;;2.78;2.58;;;22.40;57.90;;;;;;5019744;28;20188;-66
2023/06/13 04:18:09;;;;;;;3.20;3.00;;;22.30;57.90;;;;;;4994912;28;20187;-66
2023/06/13 04:20:36;;;;;;;3.10;2.90;;;22.30;57.80;;;;;;5020001;28;20211;-66
2023/06/13 04:23:02;;;;;;;2.90;2.70;;;22.30;57.90;;;;;;5033633;28;20220;-66
2023/06/13 04:25:28;;;;;;;3.20;2.95;;;22.30;57.90;;;;;;5000801;28;20192;-66
2023/06/13 04:27:57;;;;;;;3.58;2.88;;;22.30;57.90;;;;;;5011431;28;20210;-66
2023/06/13 04:30:24;;;;;;;2.90;2.70;;;22.30;57.90;;;;;;5032814;28;20270;-66
2023/06/13 04:32:49;;;;;;;3.28;3.08;;;22.30;57.90;;;;;;5011463;28;20184;-66
2023/06/13 04:35:17;;;;;;;3.10;2.90;;;22.30;57.90;;;;;;5013229;28;20252;-66
2023/06/13 04:37:46;;;;;;;2.60;2.42;;;22.30;57.90;;;;;;5014894;28;20553;-66
2023/06/13 04:40:13;;;;;;;3.50;3.08;;;22.30;57.80;;;;;;5029914;28;20217;-66
2023/06/13 04:42:39;;;;;;;3.03;2.83;;;22.30;57.90;;;;;;5002375;28;20184;-66
2023/06/13 04:45:05;;;;;;;3.05;2.80;;;22.30;57.90;;;;;;5031713;28;20200;-66
2023/06/13 04:47:31;;;;;;;2.95;2.75;;;22.40;57.90;;;;;;5029195;28;20223;-66
2023/06/13 04:50:00;;;;;;;3.05;2.85;;;22.40;57.90;;;;;;4998696;28;20257;-66
2023/06/13 04:52:29;;;;;;;2.83;2.63;;;22.30;57.80;;;;;;5031248;28;20176;-66
2023/06/13 04:54:57;;;;;;;2.60;2.40;;;22.30;57.90;;;;;;5027444;28;20199;-66
2023/06/13 04:57:22;;;;;;;2.80;2.60;;;22.30;57.90;;;;;;5018158;28;20230;-66
2023/06/13 04:59:48;;;;;;;2.95;2.75;;;22.30;57.80;;;;;;5027061;28;20619;-66
2023/06/13 05:02:16;;;;;;;3.38;2.78;;;22.30;57.90;;;;;;5011236;28;20248;-66
2023/06/13 05:04:42;;;;;;;2.83;2.63;;;22.30;57.90;;;;;;5022804;28;20299;-66
2023/06/13 05:07:08;;;;;;;3.17;2.97;;;22.40;57.90;;;;;;5012616;28;20297;-66
2023/06/13 05:09:34;;;;;;;2.97;2.70;;;22.40;57.80;;;;;;5033075;28;20212;-65
2023/06/13 05:12:00;;;;;;;2.75;2.55;;;22.30;57.80;;;;;;4998055;28;20227;-66
2023/06/13 05:14:27;;;;;;;2.78;2.53;;;22.30;57.70;;;;;;5015574;28;20238;-66
2023/06/13 05:16:53;;;;;;;3.05;2.72;;;22.30;57.60;;;;;;5015627;28;20191;-66
2023/06/13 05:19:19;;;;;;;3.25;2.95;;;22.30;57.60;;;;;;4998030;28;20207;-66
2023/06/13 05:21:46;;;;;;;2.88;2.63;;;22.30;57.60;;;;;;5038489;28;20660;-66
2023/06/13 05:24:13;;;;;;;3.17;2.92;;;22.30;57.50;;;;;;5022772;28;20195;-66
2023/06/13 05:26:39;;;;;;;2.80;2.60;;;22.30;57.60;;;;;;5040809;28;20216;-66
2023/06/13 05:29:05;;;;;;;3.33;3.03;;;22.30;57.60;;;;;;5030590;28;20246;-68
2023/06/13 05:31:33;;;;;;;2.67;2.47;;;22.30;57.60;;;;;;5013839;28;20571;-67
2023/06/13 05:34:01;;;;;;;2.65;2.45;;;22.30;57.60;;;;;;5010942;28;20219;-67
2023/06/13 05:36:27;;;;;;;3.10;2.78;;;22.30;57.60;;;;;;5033555;28;20233;-68
2023/06/13 05:38:54;;;;;;;2.70;2.50;;;22.30;57.60;;;;;;5014057;28;20211;-67
2023/06/13 05:41:20;;;;;;;2.85;2.65;;;22.30;57.60;;;;;;5034762;28;20184;-68
2023/06/13 05:43:45;;;;;;;3.08;2.80;;;22.30;57.50;;;;;;5033151;28;20202;-67
2023/06/13 05:46:13;;;;;;;2.83;2.63;;;22.30;57.60;;;;;;5016551;28;20179;-68
2023/06/13 05:48:39;;;;;;;2.88;2.67;;;22.30;57.50;;;;;;5015715;28;20208;-68
2023/06/13 05:51:05;;;;;;;2.60;2.40;;;22.30;57.50;;;;;;5025279;28;20621;-68
2023/06/13 05:53:31;;;;;;;3.00;2.80;;;22.30;57.50;;;;;;5017106;28;20187;-68
2023/06/13 05:55:57;;;;;;;2.90;2.70;;;22.30;57.50;;;;;;5050168;28;20183;-69
2023/06/13 05:58:23;;;;;;;2.90;2.70;;;22.40;57.50;;;;;;5034605;28;20237;-67
2023/06/13 06:00:50;;;;;;;3.03;2.83;;;22.30;57.50;;;;;;5034417;28;20198;-66
2023/06/13 06:03:16;;;;;;;2.80;2.60;;;22.30;57.40;;;;;;5030047;28;20216;-67
2023/06/13 06:05:42;;;;;;;2.95;2.75;;;22.30;57.40;;;;;;5047027;28;20239;-67
2023/06/13 06:08:07;;;;;;;3.08;2.70;;;22.30;57.40;;;;;;5029185;28;20200;-68
2023/06/13 06:10:33;;;;;;;3.15;2.42;;;22.30;57.40;;;;;;5029853;28;20207;-68
2023/06/13 06:12:59;;;;;;;2.60;2.40;;;22.30;57.40;;;;;;5029910;28;20670;-69
2023/06/13 06:15:25;;;;;;;2.92;2.60;;;22.30;57.50;;;;;;5021208;28;20203;-68
2023/06/13 06:17:51;;;;;;;3.08;2.70;;;22.30;57.40;;;;;;5049370;28;20184;-68
2023/06/13 06:20:17;;;;;;;3.15;2.85;;;22.30;57.40;;;;;;5033996;28;20210;-68
2023/06/13 06:22:42;;;;;;;2.90;2.70;;;22.30;57.20;;;;;;5024580;28;20277;-68
2023/06/13 06:25:12;;;;;;;2.72;2.53;;;22.30;57.30;;;;;;5008279;28;20278;-68
2023/06/13 06:27:39;;;;;;;2.42;2.22;;;22.40;57.40;;;;;;5031405;28;20215;-67
2023/06/13 06:30:06;;;;;;;2.85;2.65;;;22.30;57.40;;;;;;5009613;28;20203;-67
2023/06/13 06:32:32;;;;;;;2.90;2.70;;;22.30;57.30;;;;;;5046529;28;20195;-67
2023/06/13 06:34:57;;;;;;;2.92;2.72;;;22.30;57.30;;;;;;5028812;28;20188;-67
2023/06/13 06:37:24;;;;;;;2.78;2.58;;;22.30;57.30;;;;;;5028580;28;20187;-67
2023/06/13 06:39:50;;;;;;;3.20;2.35;;;22.30;57.30;;;;;;5015630;28;20341;-67
2023/06/13 06:42:16;;;;;;;3.97;2.70;;;22.30;57.20;;;;;;5032704;28;20195;-68
2023/06/13 06:44:55;;;;;;;2.42;2.20;;;22.30;57.10;;;;;;5029382;28;20184;-68
2023/06/13 06:47:21;;;;;;;2.78;2.58;;;22.30;57.20;;;;;;5024908;28;20575;-67
2023/06/13 06:49:47;;;;;;;2.30;2.10;;;22.30;57.20;;;;;;5015141;28;20207;-68
2023/06/13 06:52:13;;;;;;;2.25;2.15;;;22.30;57.10;;;;;;5015899;28;20187;-68
2023/06/13 06:54:38;;;;;;;3.10;2.80;;;22.30;57.20;;;;;;5032484;28;20187;-67
2023/06/13 06:57:05;;;;;;;3.00;2.78;;;22.30;57.10;;;;;;5032239;28;20187;-68
2023/06/13 06:59:31;;;;;;;2.85;2.40;;;22.30;57.10;;;;;;5015765;28;20226;-67
2023/06/13 07:01:57;;;;;;;3.05;2.42;;;22.30;57.10;;;;;;5004534;28;20184;-67
2023/06/13 07:04:23;;;;;;;2.88;2.50;;;22.30;57.10;;;;;;5028909;28;20186;-67
2023/06/13 07:06:48;;;;;;;2.85;2.65;;;22.30;57.00;;;;;;5015790;28;20207;-68
2023/06/13 07:09:14;;;;;;;2.85;2.65;;;22.30;57.10;;;;;;5007510;28;20566;-68
2023/06/13 07:11:40;;;;;;;2.70;2.42;;;22.30;57.10;;;;;;5032236;28;20654;-67
2023/06/13 07:14:07;;;;;;;2.33;2.13;;;22.30;57.10;;;;;;5023913;28;20187;-67
2023/06/13 07:16:32;;;;;;;2.92;2.72;;;22.30;56.90;;;;;;5043280;28;20183;-67
2023/06/13 07:18:58;;;;;;;2.85;2.22;;;22.30;57.00;;;;;;5028649;28;20302;-68
2023/06/13 07:21:24;;;;;;;2.55;2.20;;;22.40;57.10;;;;;;5027511;28;20188;-68
2023/06/13 07:23:50;;;;;;;3.83;2.55;;;22.30;57.00;;;;;;5014806;28;20184;-68
2023/06/13 07:26:16;;;;;;;2.35;2.13;;;22.40;57.00;;;;;;5015220;28;20187;-67
2023/06/13 07:28:41;;;;;;;3.95;2.55;;;22.40;57.00;;;;;;5028304;28;20235;-68
2023/06/13 07:31:07;;;;;;;2.85;2.40;;;22.40;57.00;;;;;;5003947;28;20183;-68
2023/06/13 07:33:33;;;;;;;2.83;2.58;;;22.30;56.90;;;;;;5041758;28;20648;-68
2023/06/13 07:36:00;;;;;;;2.90;2.70;;;22.40;56.90;;;;;;5015631;28;20512;-68
2023/06/13 07:38:26;;;;;;;3.47;2.50;;;22.40;56.80;;;;;;5015093;28;20325;-67
2023/06/13 07:40:51;;;;;;;2.55;2.35;;;22.40;56.90;;;;;;5015131;28;20281;-68
2023/06/13 07:43:18;;;;;;;2.60;2.40;;;22.40;56.80;;;;;;5015086;28;20190;-67
2023/06/13 07:45:46;;;;;;;2.88;2.58;;;22.40;56.80;;;;;;5031392;28;20191;-67
2023/06/13 07:48:12;;;;;;;2.97;2.78;;;22.40;56.70;;;;;;5014674;28;20199;-68
2023/06/13 07:50:39;;;;;;;3.75;2.55;;;22.40;56.70;;;;;;5012087;28;20187;-67
2023/06/13 07:53:04;;;;;;;3.15;2.60;;;22.40;56.60;;;;;;5028107;28;20176;-67
2023/06/13 07:55:30;;;;;;;2.58;2.38;;;22.40;56.60;;;;;;5007782;28;20195;-67
2023/06/13 07:57:56;;;;;;;2.85;2.58;;;22.40;56.70;;;;;;5032069;28;20214;-68
2023/06/13 08:00:22;;;;;;;3.10;2.50;;;22.40;56.60;;;;;;5032250;28;20218;-68
2023/06/13 08:02:47;;;;;;;2.78;2.58;;;22.40;56.70;;;;;;5022331;28;20195;-68
2023/06/13 08:05:15;;;;;;;3.45;2.80;;;22.50;56.60;;;;;;5006008;28;20199;-68
2023/06/13 08:07:41;;;;;;;2.97;2.70;;;22.50;56.90;;;;;;5031354;28;20204;-67
2023/06/13 08:10:08;;;;;;;3.00;2.72;;;22.50;56.70;;;;;;5013924;28;20195;-67
2023/06/13 08:12:33;;;;;;;2.50;2.30;;;22.50;56.90;;;;;;5039348;28;20184;-68
2023/06/13 08:14:59;;;;;;;2.83;2.63;;;22.50;56.80;;;;;;5006482;28;20185;-67
2023/06/13 08:17:25;;;;;;;2.70;2.50;;;22.50;56.80;;;;;;5031078;28;20183;-67
2023/06/13 08:19:52;;;;;;;3.55;2.58;;;22.50;56.70;;;;;;5030730;28;20211;-68
2023/06/13 08:22:18;;;;;;;2.70;2.50;;;22.50;56.50;;;;;;5031301;28;20183;-68
2023/06/13 08:24:45;;;;;;;3.13;2.28;;;22.50;56.50;;;;;;5006579;28;20198;-67
2023/06/13 08:27:15;;;;;;;2.65;2.45;;;22.50;56.30;;;;;;5032050;28;20724;-67
2023/06/13 08:29:41;;;;;;;3.72;2.58;;;22.50;56.50;;;;;;5006122;28;20210;-70
2023/06/13 08:32:08;;;;;;;3.17;2.33;;;22.50;56.40;;;;;;5006272;28;20540;-68
2023/06/13 08:34:34;;;;;;;4.03;2.70;;;22.50;56.20;;;;;;5014808;28;20262;-68
2023/06/13 08:37:00;;;;;;;2.40;2.30;;;22.50;56.00;;;;;;5011165;28;20195;-67
2023/06/13 08:39:26;;;;;;;3.65;2.50;;;22.50;56.00;;;;;;5023020;28;20282;-68
2023/06/13 08:41:53;;;;;;;2.70;2.45;;;22.50;56.10;;;;;;5030846;28;20654;-68
2023/06/13 08:44:20;;;;;;;3.80;3.00;;;22.60;56.20;;;;;;5027900;28;20188;-67
2023/06/13 08:46:46;;;;;;;4.55;2.42;;;22.50;56.10;;;;;;5011869;28;20294;-68
2023/06/13 08:49:12;;;;;;;2.97;2.67;;;22.60;56.40;;;;;;5030561;28;20682;-68
2023/06/13 08:51:38;;;;;;;2.53;2.33;;;22.60;56.40;;;;;;5022274;28;20234;-68
2023/06/13 08:54:05;;;;;;;2.58;2.13;;;22.60;56.40;;;;;;5043617;28;20660;-68
2023/06/13 08:56:42;;;;;;;2.75;2.55;;;22.70;56.60;;;;;;5010972;28;20615;-68
2023/06/13 08:59:13;;;;;;;2.97;2.58;;;22.70;56.40;;;;;;5003588;28;20211;-68
2023/06/13 09:01:40;;;;;;;2.75;2.50;;;22.70;56.30;;;;;;5009476;28;20278;-67
2023/06/13 09:04:11;;;;;;;2.97;2.75;;;22.70;56.30;;;;;;5024503;28;20188;-67
2023/06/13 09:06:38;;;;;;;1.98;1.88;;;22.70;56.20;;;;;;5014010;28;20183;-68
2023/06/13 09:09:08;;;;;;;2.65;2.45;;;22.70;56.00;;;;;;5023711;28;20207;-68
2023/06/13 09:11:36;;;;;;;3.05;2.75;;;22.70;56.30;;;;;;5014035;28;20233;-68
2023/06/13 09:14:06;;;;;;;2.50;2.30;;;22.70;55.90;;;;;;5006248;28;20179;-68
2023/06/13 09:16:33;;;;;;;2.58;2.38;;;22.70;56.10;;;;;;5047128;28;20286;-68
2023/06/13 09:18:59;;;;;;;2.58;2.38;;;22.70;55.90;;;;;;5019903;28;20220;-68
2023/06/13 09:21:25;;;;;;;2.63;2.22;;;22.70;56.00;;;;;;5020272;28;20179;-68
2023/06/13 09:23:57;;;;;;;3.40;2.40;;;22.70;56.00;;;;;;5026088;28;20219;-68
2023/06/13 09:26:24;;;;;;;2.50;2.30;;;22.70;56.20;;;;;;5017623;28;20236;-68
2023/06/13 09:28:50;;;;;;;2.50;2.30;;;22.70;56.30;;;;;;5009374;28;20208;-68
2023/06/13 09:31:16;;;;;;;4.22;2.53;;;22.70;56.40;;;;;;5034001;28;20187;-67
2023/06/13 09:33:45;;;;;;;2.63;2.42;;;22.70;56.00;;;;;;5034182;28;20190;-68
2023/06/13 09:36:11;;;;;;;2.53;2.33;;;22.70;56.00;;;;;;5017349;28;20191;-67
2023/06/13 09:38:40;;;;;;;2.75;2.55;;;22.70;56.30;;;;;;5042274;28;20638;-68
2023/06/13 09:41:13;;;;;;;2.85;2.60;;;22.70;56.30;;;;;;5050390;28;20219;-67
2023/06/13 09:43:40;;;;;;;2.58;2.38;;;22.70;56.40;;;;;;5017648;28;20187;-68
2023/06/13 09:46:10;;;;;;;2.83;2.17;;;22.60;56.40;;;;;;5046910;28;20223;-68
2023/06/13 09:48:36;;;;;;;2.60;2.40;;;22.70;56.00;;;;;;5010155;28;20297;-68
2023/06/13 09:51:09;;;;;;;2.60;2.40;;;22.70;56.20;;;;;;5030122;28;20220;-68
2023/06/13 09:53:35;;;;;;;2.47;2.28;;;22.70;56.30;;;;;;5012893;28;20183;-68
2023/06/13 09:56:01;;;;;;;2.60;2.40;;;22.70;56.30;;;;;;5009299;28;20544;-68
2023/06/13 09:58:28;;;;;;;2.97;2.42;;;22.70;56.10;;;;;;5033580;28;20183;-67
2023/06/13 10:00:57;;;;;;;2.53;2.33;;;22.70;55.90;;;;;;5017225;28;20190;-68
2023/06/13 10:03:23;;;;;;;2.58;2.35;;;22.70;56.10;;;;;;5033577;28;20191;-68
2023/06/13 10:05:50;;;;;;;2.47;2.28;;;22.70;56.00;;;;;;5025438;28;20204;-68
2023/06/13 10:08:16;;;;;;;3.35;2.47;;;22.70;55.70;;;;;;5020490;28;20216;-68
2023/06/13 10:10:42;;;;;;;2.38;2.15;;;22.70;55.90;;;;;;5029624;28;20187;-68
2023/06/13 10:13:15;;;;;;;2.60;2.40;;;22.70;56.10;;;;;;5017087;28;20179;-68
2023/06/13 10:15:50;;;;;;;2.28;2.08;;;22.70;55.80;;;;;;5027851;28;20283;-68
2023/06/13 10:18:24;;;;;;;2.65;2.45;;;22.70;55.90;;;;;;5014217;28;20249;-67
2023/06/13 10:20:51;;;;;;;2.40;2.20;;;22.60;55.90;;;;;;5041857;28;20254;-68
2023/06/13 10:23:21;;;;;;;2.78;2.58;;;22.70;56.20;;;;;;5034184;28;20237;-68
2023/06/13 10:25:54;;;;;;;2.63;2.42;;;22.70;56.20;;;;;;5005850;28;20552;-68
2023/06/13 10:28:41;;;;;;;2.45;2.25;;;22.70;56.00;;;;;;5030613;28;20408;-68
2023/06/13 10:31:46;;;;;;;3.25;2.40;;;22.70;55.60;;;;;;5016084;28;20206;-68
2023/06/13 10:34:30;;;;;;;2.80;2.60;;;22.70;55.80;;;;;;4989720;28;20184;-68
2023/06/13 10:37:53;;;;;;;3.72;2.78;;;22.70;55.50;;;;;;5029154;28;20199;-68
2023/06/13 10:40:49;;;;;;;2.78;2.58;;;22.70;55.90;;;;;;5025207;28;20230;-68
2023/06/13 10:44:35;;;;;;;2.78;2.55;;;22.70;55.80;;;;;;5006120;28;20191;-67
2023/06/13 10:47:01;;;;;;;3.72;2.67;;;22.70;55.50;;;;;;5022775;28;20215;-68
2023/06/13 10:49:38;;;;;;;2.42;2.22;;;22.70;55.80;;;;;;5010469;28;20276;-68
2023/06/13 10:52:10;;;;;;;2.83;2.63;;;22.70;56.30;;;;;;5022740;28;20206;-69
2023/06/13 10:54:36;;;;;;;3.63;2.25;;;22.70;55.60;;;;;;5012447;28;20263;-67
2023/06/13 10:57:03;;;;;;;2.80;2.60;;;22.70;55.40;;;;;;5020809;28;20203;-68
2023/06/13 10:59:39;;;;;;;3.10;2.50;;;22.70;55.40;;;;;;5015281;28;20203;-68
2023/06/13 11:02:14;;;;;;;3.58;2.47;;;22.70;55.40;;;;;;5005347;28;20179;-68
2023/06/13 11:04:47;;;;;;;5.82;2.72;;;22.70;55.20;;;;;;5031884;28;20197;-68
2023/06/13 11:07:24;;;;;;;3.45;2.25;;;22.70;55.40;;;;;;5026721;28;20211;-69
2023/06/13 11:10:14;;;;;;;2.90;2.60;;;22.70;55.50;;;;;;5031938;28;20215;-67
2023/06/13 11:12:42;;;;;;;2.70;2.50;;;22.70;55.60;;;;;;5012637;28;20274;-68
2023/06/13 11:15:28;;;;;;;2.58;2.38;;;22.70;55.50;;;;;;5031828;28;20190;-68
2023/06/13 11:18:09;;;;;;;2.50;2.30;;;22.70;55.20;;;;;;5032004;28;20198;-67
2023/06/13 11:20:51;;;;;;;3.05;2.85;;;22.70;55.20;;;;;;5015334;28;20211;-68
2023/06/13 11:23:43;;;;;;;2.53;2.33;;;22.70;55.40;;;;;;5032268;28;20183;-68
2023/06/13 11:26:09;;;;;;;3.00;2.70;;;22.70;55.60;;;;;;5032120;28;20192;-68
2023/06/13 11:28:34;;;;;;;2.88;2.65;;;22.70;55.50;;;;;;5015533;28;20211;-68
2023/06/13 11:31:05;;;;;;;2.75;2.55;;;22.70;55.40;;;;;;5015099;28;20206;-68
2023/06/13 11:33:41;;;;;;;3.97;2.47;;;22.70;55.70;;;;;;5028538;28;20192;-68
2023/06/13 11:36:09;;;;;;;2.58;2.38;;;22.70;55.40;;;;;;5031369;28;20191;-68
2023/06/13 11:38:46;;;;;;;3.13;2.75;;;22.70;55.50;;;;;;5031800;28;20206;-68
2023/06/13 11:41:12;;;;;;;2.88;2.30;;;22.70;55.50;;;;;;5036944;28;20190;-68
2023/06/13 11:43:38;;;;;;;2.70;2.30;;;22.70;55.40;;;;;;5024519;28;20555;-69
2023/06/13 11:46:05;;;;;;;3.65;2.72;;;22.70;55.30;;;;;;5014705;28;20218;-68
2023/06/13 11:48:31;;;;;;;2.67;2.47;;;22.70;55.00;;;;;;5023134;28;20227;-67
2023/06/13 11:51:14;;;;;;;2.85;2.55;;;22.70;54.90;;;;;;5031367;28;20187;-68
2023/06/13 11:53:52;;;;;;;4.55;2.45;;;22.70;55.10;;;;;;5028044;28;20689;-67
2023/06/13 11:56:21;;;;;;;2.80;2.42;;;22.70;55.40;;;;;;5024080;28;20202;-68
2023/06/13 11:58:47;;;;;;;3.22;2.90;;;22.70;55.40;;;;;;5019846;28;20699;-68
2023/06/13 12:01:15;;;;;;;3.65;2.80;;;22.70;55.20;;;;;;5028080;28;20192;-68
2023/06/13 12:03:45;;;;;;;2.70;2.50;;;22.70;55.50;;;;;;5031466;28;20191;-68
2023/06/13 12:06:12;;;;;;;2.83;2.63;;;22.70;55.40;;;;;;5024214;28;20266;-68
2023/06/13 12:08:41;;;;;;;3.47;2.50;;;22.70;54.50;;;;;;5023113;28;20219;-68
2023/06/13 12:11:11;;;;;;;2.75;2.55;;;22.70;54.90;;;;;;5028530;28;20183;-68
2023/06/13 12:13:37;;;;;;;2.95;2.65;;;22.70;54.90;;;;;;5026316;28;20547;-68
2023/06/13 12:16:06;;;;;;;2.97;2.70;;;22.70;55.30;;;;;;5015825;28;20537;-68
2023/06/13 12:18:33;;;;;;;2.47;2.28;;;22.70;55.40;;;;;;5014616;28;20567;-67
2023/06/13 12:20:59;;;;;;;2.53;2.33;;;22.70;54.90;;;;;;5032344;28;20191;-67
2023/06/13 12:23:27;;;;;;;2.45;2.25;;;22.70;55.00;;;;;;5014796;28;20191;-68
2023/06/13 12:25:53;;;;;;;2.70;2.50;;;22.70;54.70;;;;;;5032071;28;20225;-68
2023/06/13 12:28:20;;;;;;;2.83;2.30;;;22.70;54.80;;;;;;5014733;28;20230;-68
2023/06/13 12:30:49;;;;;;;2.80;2.60;;;22.70;54.80;;;;;;5018406;28;20183;-68
2023/06/13 12:33:19;;;;;;;2.97;2.78;;;22.70;54.80;;;;;;4995025;28;20211;-67
2023/06/13 12:35:54;;;;;;;2.95;2.55;;;22.70;54.70;;;;;;5018582;28;20186;-68
2023/06/13 12:38:29;;;;;;;3.28;2.97;;;22.70;54.90;;;;;;5030806;28;20211;-68
2023/06/13 12:40:56;;;;;;;3.75;2.83;;;22.70;55.10;;;;;;5013667;28;20195;-67
2023/06/13 12:43:26;;;;;;;2.90;2.65;;;22.70;55.20;;;;;;5023415;28;20191;-68
2023/06/13 12:45:56;;;;;;;2.90;2.60;;;22.70;55.10;;;;;;5014352;28;20217;-68
2023/06/13 12:48:23;;;;;;;3.25;2.53;;;22.70;55.10;;;;;;5015303;28;20207;-68
2023/06/13 12:50:50;;;;;;;4.53;2.92;;;22.70;54.80;;;;;;5030952;28;20188;-68
2023/06/13 12:53:21;;;;;;;2.67;2.47;;;22.70;54.60;;;;;;5019466;28;20188;-68
2023/06/13 12:55:50;;;;;;;2.83;2.63;;;22.70;54.90;;;;;;5012356;28;20267;-68